sensor_id;sensor_type;location;lat;lon;timestamp;P1;durP1;ratioP1;P2;durP2;ratioP2
64210;SDS011;50528;48.514;14.394;2023-03-15T00:00:06;4.60;;;1.20;;
64210;SDS011;50528;48.514;14.394;2023-03-15T00:01:03;3.20;;;1.30;;
64210;SDS011;50528;48.514;14.394;2023-03-15T00:01:40;3.60;;;1.20;;
64210;SDS011;50528;48.514;14.394;2023-03-15T00:02:13;4.20;;;1.30;;
64210;SDS011;50528;48.514;14.394;2023-03-15T00:02:46;4.20;;;1.40;;
64210;SDS011;50528;48.514;14.394;2023-03-15T00:03:20;4.30;;;1.30;;
64210;SDS011;50528;48.514;14.394;2023-03-15T00:03:56;4.40;;;1.30;;
64210;SDS011;50528;48.514;14.394;2023-03-15T00:04:29;2.50;;;1.10;;
64210;SDS011;50528;48.514;14.394;2023-03-15T00:05:06;5.40;;;1.20;;
64210;SDS011;50528;48.514;14.394;2023-03-15T00:05:45;3.40;;;1.30;;
64210;SDS011;50528;48.514;14.394;2023-03-15T00:06:20;4.90;;;1.20;;
64210;SDS011;50528;48.514;14.394;2023-03-15T00:06:54;3.80;;;1.50;;
64210;SDS011;50528;48.514;14.394;2023-03-15T00:07:28;4.40;;;1.30;;
64210;SDS011;50528;48.514;14.394;2023-03-15T00:08:01;4.00;;;1.20;;
64210;SDS011;50528;48.514;14.394;2023-03-15T00:08:36;4.50;;;1.20;;
64210;SDS011;50528;48.514;14.394;2023-03-15T00:09:10;3.00;;;1.20;;
64210;SDS011;50528;48.514;14.394;2023-03-15T00:09:43;3.40;;;1.30;;
64210;SDS011;50528;48.514;14.394;2023-03-15T00:10:16;3.50;;;1.20;;
64210;SDS011;50528;48.514;14.394;2023-03-15T00:10:51;2.80;;;1.50;;
64210;SDS011;50528;48.514;14.394;2023-03-15T00:11:25;2.90;;;1.20;;
64210;SDS011;50528;48.514;14.394;2023-03-15T00:11:58;5.20;;;1.20;;
64210;SDS011;50528;48.514;14.394;2023-03-15T00:12:32;3.80;;;1.20;;
64210;SDS011;50528;48.514;14.394;2023-03-15T00:13:06;3.70;;;1.30;;
64210;SDS011;50528;48.514;14.394;2023-03-15T00:13:40;3.40;;;1.20;;
64210;SDS011;50528;48.514;14.394;2023-03-15T00:14:14;3.20;;;1.10;;
64210;SDS011;50528;48.514;14.394;2023-03-15T00:14:48;4.10;;;1.30;;
64210;SDS011;50528;48.514;14.394;2023-03-15T00:15:22;4.30;;;1.50;;
64210;SDS011;50528;48.514;14.394;2023-03-15T00:15:56;2.80;;;1.20;;
64210;SDS011;50528;48.514;14.394;2023-03-15T00:16:32;4.50;;;1.40;;
64210;SDS011;50528;48.514;14.394;2023-03-15T00:17:05;3.80;;;1.30;;
64210;SDS011;50528;48.514;14.394;2023-03-15T00:17:39;4.30;;;1.30;;
64210;SDS011;50528;48.514;14.394;2023-03-15T00:18:13;9.00;;;1.60;;
64210;SDS011;50528;48.514;14.394;2023-03-15T00:18:47;5.40;;;1.20;;
64210;SDS011;50528;48.514;14.394;2023-03-15T00:19:21;3.60;;;1.20;;
64210;SDS011;50528;48.514;14.394;2023-03-15T00:19:54;7.60;;;1.40;;
64210;SDS011;50528;48.514;14.394;2023-03-15T00:20:28;2.60;;;1.30;;
64210;SDS011;50528;48.514;14.394;2023-03-15T00:21:03;4.00;;;1.40;;
64210;SDS011;50528;48.514;14.394;2023-03-15T00:21:36;3.90;;;1.20;;
64210;SDS011;50528;48.514;14.394;2023-03-15T00:22:11;4.10;;;1.40;;
64210;SDS011;50528;48.514;14.394;2023-03-15T00:22:45;5.20;;;1.30;;
64210;SDS011;50528;48.514;14.394;2023-03-15T00:23:18;4.10;;;1.50;;
64210;SDS011;50528;48.514;14.394;2023-03-15T00:23:52;5.80;;;1.30;;
64210;SDS011;50528;48.514;14.394;2023-03-15T00:24:26;2.60;;;1.10;;
64210;SDS011;50528;48.514;14.394;2023-03-15T00:24:59;3.30;;;1.20;;
64210;SDS011;50528;48.514;14.394;2023-03-15T00:25:33;4.00;;;1.50;;
64210;SDS011;50528;48.514;14.394;2023-03-15T00:26:06;3.20;;;1.40;;
64210;SDS011;50528;48.514;14.394;2023-03-15T00:26:39;2.70;;;1.10;;
64210;SDS011;50528;48.514;14.394;2023-03-15T00:27:13;4.20;;;1.40;;
64210;SDS011;50528;48.514;14.394;2023-03-15T00:27:46;3.70;;;1.30;;
64210;SDS011;50528;48.514;14.394;2023-03-15T00:28:20;3.00;;;1.20;;
64210;SDS011;50528;48.514;14.394;2023-03-15T00:28:56;3.50;;;1.30;;
64210;SDS011;50528;48.514;14.394;2023-03-15T00:29:30;5.40;;;1.40;;
64210;SDS011;50528;48.514;14.394;2023-03-15T00:30:04;3.20;;;1.20;;
64210;SDS011;50528;48.514;14.394;2023-03-15T00:30:38;2.90;;;1.00;;
64210;SDS011;50528;48.514;14.394;2023-03-15T00:31:19;4.60;;;1.40;;
64210;SDS011;50528;48.514;14.394;2023-03-15T00:31:55;4.10;;;1.20;;
64210;SDS011;50528;48.514;14.394;2023-03-15T00:32:28;3.10;;;1.20;;
64210;SDS011;50528;48.514;14.394;2023-03-15T00:33:03;3.70;;;1.30;;
64210;SDS011;50528;48.514;14.394;2023-03-15T00:33:40;4.00;;;1.20;;
64210;SDS011;50528;48.514;14.394;2023-03-15T00:34:15;5.30;;;1.40;;
64210;SDS011;50528;48.514;14.394;2023-03-15T00:34:50;3.30;;;1.30;;
64210;SDS011;50528;48.514;14.394;2023-03-15T00:35:26;4.30;;;1.40;;
64210;SDS011;50528;48.514;14.394;2023-03-15T00:36:04;3.10;;;1.20;;
64210;SDS011;50528;48.514;14.394;2023-03-15T00:36:39;5.10;;;1.40;;
64210;SDS011;50528;48.514;14.394;2023-03-15T00:37:15;4.30;;;1.40;;
64210;SDS011;50528;48.514;14.394;2023-03-15T00:37:58;5.40;;;1.40;;
64210;SDS011;50528;48.514;14.394;2023-03-15T00:38:32;3.40;;;1.30;;
64210;SDS011;50528;48.514;14.394;2023-03-15T00:39:07;3.10;;;1.30;;
64210;SDS011;50528;48.514;14.394;2023-03-15T00:39:41;4.40;;;1.60;;
64210;SDS011;50528;48.514;14.394;2023-03-15T00:40:17;5.90;;;1.40;;
64210;SDS011;50528;48.514;14.394;2023-03-15T00:40:50;5.70;;;1.20;;
64210;SDS011;50528;48.514;14.394;2023-03-15T00:41:24;4.40;;;1.40;;
64210;SDS011;50528;48.514;14.394;2023-03-15T00:41:57;4.00;;;1.60;;
64210;SDS011;50528;48.514;14.394;2023-03-15T00:42:30;3.10;;;1.20;;
64210;SDS011;50528;48.514;14.394;2023-03-15T00:43:05;3.50;;;1.30;;
64210;SDS011;50528;48.514;14.394;2023-03-15T00:43:39;3.80;;;1.30;;
64210;SDS011;50528;48.514;14.394;2023-03-15T00:44:13;5.10;;;1.60;;
64210;SDS011;50528;48.514;14.394;2023-03-15T00:44:46;3.50;;;1.40;;
64210;SDS011;50528;48.514;14.394;2023-03-15T00:45:20;3.40;;;1.20;;
64210;SDS011;50528;48.514;14.394;2023-03-15T00:45:54;3.60;;;1.60;;
64210;SDS011;50528;48.514;14.394;2023-03-15T00:46:27;3.10;;;1.20;;
64210;SDS011;50528;48.514;14.394;2023-03-15T00:47:02;3.30;;;1.40;;
64210;SDS011;50528;48.514;14.394;2023-03-15T00:47:35;3.20;;;1.30;;
64210;SDS011;50528;48.514;14.394;2023-03-15T00:48:08;3.30;;;1.30;;
64210;SDS011;50528;48.514;14.394;2023-03-15T00:48:42;5.70;;;1.80;;
64210;SDS011;50528;48.514;14.394;2023-03-15T00:49:15;3.80;;;1.40;;
64210;SDS011;50528;48.514;14.394;2023-03-15T00:49:49;3.90;;;1.50;;
64210;SDS011;50528;48.514;14.394;2023-03-15T00:50:22;3.40;;;1.30;;
64210;SDS011;50528;48.514;14.394;2023-03-15T00:51:02;4.30;;;1.20;;
64210;SDS011;50528;48.514;14.394;2023-03-15T00:51:49;3.20;;;1.30;;
64210;SDS011;50528;48.514;14.394;2023-03-15T00:52:31;5.50;;;1.40;;
64210;SDS011;50528;48.514;14.394;2023-03-15T00:53:07;4.70;;;1.40;;
64210;SDS011;50528;48.514;14.394;2023-03-15T00:53:42;3.40;;;1.40;;
64210;SDS011;50528;48.514;14.394;2023-03-15T00:54:17;3.90;;;1.40;;
64210;SDS011;50528;48.514;14.394;2023-03-15T00:54:53;5.00;;;1.30;;
64210;SDS011;50528;48.514;14.394;2023-03-15T00:55:27;2.70;;;1.20;;
64210;SDS011;50528;48.514;14.394;2023-03-15T00:56:08;3.50;;;1.40;;
64210;SDS011;50528;48.514;14.394;2023-03-15T00:56:48;3.60;;;1.10;;
64210;SDS011;50528;48.514;14.394;2023-03-15T00:57:22;5.10;;;1.30;;
64210;SDS011;50528;48.514;14.394;2023-03-15T00:57:55;3.40;;;1.30;;
64210;SDS011;50528;48.514;14.394;2023-03-15T00:58:29;3.90;;;1.40;;
64210;SDS011;50528;48.514;14.394;2023-03-15T00:59:03;4.30;;;1.40;;
64210;SDS011;50528;48.514;14.394;2023-03-15T00:59:36;2.70;;;1.30;;
64210;SDS011;50528;48.514;14.394;2023-03-15T01:00:14;3.90;;;1.40;;
64210;SDS011;50528;48.514;14.394;2023-03-15T01:00:52;4.30;;;1.40;;
64210;SDS011;50528;48.514;14.394;2023-03-15T01:01:26;3.80;;;1.30;;
64210;SDS011;50528;48.514;14.394;2023-03-15T01:02:02;4.70;;;1.50;;
64210;SDS011;50528;48.514;14.394;2023-03-15T01:02:36;4.30;;;1.30;;
64210;SDS011;50528;48.514;14.394;2023-03-15T01:03:10;4.30;;;1.40;;
64210;SDS011;50528;48.514;14.394;2023-03-15T01:03:45;4.40;;;1.20;;
64210;SDS011;50528;48.514;14.394;2023-03-15T01:04:18;4.90;;;1.20;;
64210;SDS011;50528;48.514;14.394;2023-03-15T01:04:52;4.90;;;1.50;;
64210;SDS011;50528;48.514;14.394;2023-03-15T01:05:25;3.10;;;1.20;;
64210;SDS011;50528;48.514;14.394;2023-03-15T01:06:03;2.80;;;1.20;;
64210;SDS011;50528;48.514;14.394;2023-03-15T01:06:44;3.80;;;1.40;;
64210;SDS011;50528;48.514;14.394;2023-03-15T01:07:17;3.70;;;1.30;;
64210;SDS011;50528;48.514;14.394;2023-03-15T01:07:51;5.60;;;1.40;;
64210;SDS011;50528;48.514;14.394;2023-03-15T01:08:25;3.60;;;1.30;;
64210;SDS011;50528;48.514;14.394;2023-03-15T01:08:58;2.60;;;1.30;;
64210;SDS011;50528;48.514;14.394;2023-03-15T01:09:33;3.50;;;1.40;;
64210;SDS011;50528;48.514;14.394;2023-03-15T01:10:07;4.00;;;1.30;;
64210;SDS011;50528;48.514;14.394;2023-03-15T01:10:42;4.20;;;1.50;;
64210;SDS011;50528;48.514;14.394;2023-03-15T01:11:19;3.70;;;1.40;;
64210;SDS011;50528;48.514;14.394;2023-03-15T01:11:58;3.60;;;1.20;;
64210;SDS011;50528;48.514;14.394;2023-03-15T01:12:33;5.80;;;1.60;;
64210;SDS011;50528;48.514;14.394;2023-03-15T01:13:07;3.50;;;1.30;;
64210;SDS011;50528;48.514;14.394;2023-03-15T01:13:40;5.70;;;1.20;;
64210;SDS011;50528;48.514;14.394;2023-03-15T01:14:14;4.30;;;1.40;;
64210;SDS011;50528;48.514;14.394;2023-03-15T01:14:47;4.10;;;1.40;;
64210;SDS011;50528;48.514;14.394;2023-03-15T01:15:21;5.10;;;1.60;;
64210;SDS011;50528;48.514;14.394;2023-03-15T01:15:54;6.60;;;1.50;;
64210;SDS011;50528;48.514;14.394;2023-03-15T01:16:30;4.70;;;1.40;;
64210;SDS011;50528;48.514;14.394;2023-03-15T01:17:04;4.30;;;1.30;;
64210;SDS011;50528;48.514;14.394;2023-03-15T01:17:37;3.70;;;1.30;;
64210;SDS011;50528;48.514;14.394;2023-03-15T01:18:11;4.00;;;1.50;;
64210;SDS011;50528;48.514;14.394;2023-03-15T01:18:46;5.00;;;1.40;;
64210;SDS011;50528;48.514;14.394;2023-03-15T01:19:19;4.00;;;1.40;;
64210;SDS011;50528;48.514;14.394;2023-03-15T01:19:53;4.60;;;1.50;;
64210;SDS011;50528;48.514;14.394;2023-03-15T01:20:26;3.80;;;1.40;;
64210;SDS011;50528;48.514;14.394;2023-03-15T01:20:59;3.60;;;1.40;;
64210;SDS011;50528;48.514;14.394;2023-03-15T01:21:36;3.40;;;1.40;;
64210;SDS011;50528;48.514;14.394;2023-03-15T01:22:09;4.10;;;1.60;;
64210;SDS011;50528;48.514;14.394;2023-03-15T01:22:43;5.30;;;1.50;;
64210;SDS011;50528;48.514;14.394;2023-03-15T01:23:16;3.90;;;1.40;;
64210;SDS011;50528;48.514;14.394;2023-03-15T01:23:52;4.80;;;1.50;;
64210;SDS011;50528;48.514;14.394;2023-03-15T01:24:26;4.90;;;1.40;;
64210;SDS011;50528;48.514;14.394;2023-03-15T01:25:00;5.30;;;1.30;;
64210;SDS011;50528;48.514;14.394;2023-03-15T01:25:33;4.60;;;1.60;;
64210;SDS011;50528;48.514;14.394;2023-03-15T01:26:08;5.10;;;1.40;;
64210;SDS011;50528;48.514;14.394;2023-03-15T01:26:43;4.80;;;1.30;;
64210;SDS011;50528;48.514;14.394;2023-03-15T01:27:17;4.60;;;1.70;;
64210;SDS011;50528;48.514;14.394;2023-03-15T01:27:50;6.10;;;1.40;;
64210;SDS011;50528;48.514;14.394;2023-03-15T01:28:25;4.70;;;1.30;;
64210;SDS011;50528;48.514;14.394;2023-03-15T01:28:58;4.20;;;1.40;;
64210;SDS011;50528;48.514;14.394;2023-03-15T01:29:32;4.00;;;1.40;;
64210;SDS011;50528;48.514;14.394;2023-03-15T01:30:06;5.10;;;1.50;;
64210;SDS011;50528;48.514;14.394;2023-03-15T01:30:47;5.70;;;1.40;;
64210;SDS011;50528;48.514;14.394;2023-03-15T01:31:25;3.30;;;1.20;;
64210;SDS011;50528;48.514;14.394;2023-03-15T01:32:00;3.30;;;1.30;;
64210;SDS011;50528;48.514;14.394;2023-03-15T01:32:34;3.90;;;1.70;;
64210;SDS011;50528;48.514;14.394;2023-03-15T01:33:07;6.20;;;1.70;;
64210;SDS011;50528;48.514;14.394;2023-03-15T01:33:41;7.40;;;1.60;;
64210;SDS011;50528;48.514;14.394;2023-03-15T01:34:15;4.70;;;1.40;;
64210;SDS011;50528;48.514;14.394;2023-03-15T01:34:48;5.80;;;1.40;;
64210;SDS011;50528;48.514;14.394;2023-03-15T01:35:21;4.00;;;1.40;;
64210;SDS011;50528;48.514;14.394;2023-03-15T01:36:13;3.70;;;1.40;;
64210;SDS011;50528;48.514;14.394;2023-03-15T01:36:48;4.70;;;1.60;;
64210;SDS011;50528;48.514;14.394;2023-03-15T01:37:25;4.50;;;1.40;;
64210;SDS011;50528;48.514;14.394;2023-03-15T01:38:01;4.70;;;1.60;;
64210;SDS011;50528;48.514;14.394;2023-03-15T01:38:36;5.20;;;1.60;;
64210;SDS011;50528;48.514;14.394;2023-03-15T01:39:14;3.60;;;1.60;;
64210;SDS011;50528;48.514;14.394;2023-03-15T01:39:49;3.60;;;1.50;;
64210;SDS011;50528;48.514;14.394;2023-03-15T01:40:22;3.10;;;1.40;;
64210;SDS011;50528;48.514;14.394;2023-03-15T01:40:57;3.00;;;1.20;;
64210;SDS011;50528;48.514;14.394;2023-03-15T01:41:30;7.60;;;1.60;;
64210;SDS011;50528;48.514;14.394;2023-03-15T01:42:04;3.70;;;1.50;;
64210;SDS011;50528;48.514;14.394;2023-03-15T01:42:53;3.60;;;1.50;;
64210;SDS011;50528;48.514;14.394;2023-03-15T01:43:53;5.00;;;2.10;;
64210;SDS011;50528;48.514;14.394;2023-03-15T01:44:46;4.00;;;1.40;;
64210;SDS011;50528;48.514;14.394;2023-03-15T01:46:42;4.60;;;1.30;;
64210;SDS011;50528;48.514;14.394;2023-03-15T01:47:28;2.70;;;1.30;;
64210;SDS011;50528;48.514;14.394;2023-03-15T01:48:03;3.00;;;1.30;;
64210;SDS011;50528;48.514;14.394;2023-03-15T01:48:40;3.80;;;1.30;;
64210;SDS011;50528;48.514;14.394;2023-03-15T01:49:22;3.60;;;1.40;;
64210;SDS011;50528;48.514;14.394;2023-03-15T01:50:06;3.70;;;1.50;;
64210;SDS011;50528;48.514;14.394;2023-03-15T01:50:42;4.40;;;1.40;;
64210;SDS011;50528;48.514;14.394;2023-03-15T01:52:49;3.40;;;1.30;;
64210;SDS011;50528;48.514;14.394;2023-03-15T01:53:24;4.30;;;1.50;;
64210;SDS011;50528;48.514;14.394;2023-03-15T01:55:15;4.80;;;1.30;;
64210;SDS011;50528;48.514;14.394;2023-03-15T01:57:15;3.30;;;1.30;;
64210;SDS011;50528;48.514;14.394;2023-03-15T01:58:06;3.90;;;1.90;;
64210;SDS011;50528;48.514;14.394;2023-03-15T01:58:45;6.00;;;1.60;;
64210;SDS011;50528;48.514;14.394;2023-03-15T01:59:28;4.60;;;1.60;;
64210;SDS011;50528;48.514;14.394;2023-03-15T02:00:17;3.80;;;1.60;;
64210;SDS011;50528;48.514;14.394;2023-03-15T02:01:00;4.70;;;1.70;;
64210;SDS011;50528;48.514;14.394;2023-03-15T02:01:37;6.00;;;1.50;;
64210;SDS011;50528;48.514;14.394;2023-03-15T02:02:18;4.30;;;1.70;;
64210;SDS011;50528;48.514;14.394;2023-03-15T02:02:57;3.60;;;1.50;;
64210;SDS011;50528;48.514;14.394;2023-03-15T02:03:40;3.60;;;1.60;;
64210;SDS011;50528;48.514;14.394;2023-03-15T02:04:21;4.70;;;1.70;;
64210;SDS011;50528;48.514;14.394;2023-03-15T02:05:09;3.90;;;1.50;;
64210;SDS011;50528;48.514;14.394;2023-03-15T02:05:51;4.10;;;1.50;;
64210;SDS011;50528;48.514;14.394;2023-03-15T02:06:40;4.10;;;1.50;;
64210;SDS011;50528;48.514;14.394;2023-03-15T02:07:22;4.70;;;1.50;;
64210;SDS011;50528;48.514;14.394;2023-03-15T02:07:58;3.20;;;1.50;;
64210;SDS011;50528;48.514;14.394;2023-03-15T02:08:37;5.10;;;1.60;;
64210;SDS011;50528;48.514;14.394;2023-03-15T02:09:15;3.70;;;1.50;;
64210;SDS011;50528;48.514;14.394;2023-03-15T02:09:53;2.90;;;1.40;;
64210;SDS011;50528;48.514;14.394;2023-03-15T02:10:44;4.00;;;1.50;;
64210;SDS011;50528;48.514;14.394;2023-03-15T02:11:23;3.50;;;1.70;;
64210;SDS011;50528;48.514;14.394;2023-03-15T02:11:59;5.20;;;1.80;;
64210;SDS011;50528;48.514;14.394;2023-03-15T02:12:34;5.10;;;1.40;;
64210;SDS011;50528;48.514;14.394;2023-03-15T02:13:14;3.70;;;1.60;;
64210;SDS011;50528;48.514;14.394;2023-03-15T02:13:57;4.80;;;1.90;;
64210;SDS011;50528;48.514;14.394;2023-03-15T02:14:33;4.10;;;1.50;;
64210;SDS011;50528;48.514;14.394;2023-03-15T02:15:08;4.50;;;1.70;;
64210;SDS011;50528;48.514;14.394;2023-03-15T02:15:44;3.90;;;1.60;;
64210;SDS011;50528;48.514;14.394;2023-03-15T02:16:24;8.30;;;1.90;;
64210;SDS011;50528;48.514;14.394;2023-03-15T02:17:04;3.60;;;2.00;;
64210;SDS011;50528;48.514;14.394;2023-03-15T02:17:39;5.10;;;1.70;;
64210;SDS011;50528;48.514;14.394;2023-03-15T02:18:16;4.30;;;1.80;;
64210;SDS011;50528;48.514;14.394;2023-03-15T02:18:50;5.40;;;1.70;;
64210;SDS011;50528;48.514;14.394;2023-03-15T02:19:30;3.40;;;1.50;;
64210;SDS011;50528;48.514;14.394;2023-03-15T02:23:26;3.90;;;1.80;;
64210;SDS011;50528;48.514;14.394;2023-03-15T02:24:07;4.80;;;1.60;;
64210;SDS011;50528;48.514;14.394;2023-03-15T02:25:01;4.40;;;1.80;;
64210;SDS011;50528;48.514;14.394;2023-03-15T02:26:00;4.40;;;1.60;;
64210;SDS011;50528;48.514;14.394;2023-03-15T02:26:53;4.40;;;1.50;;
64210;SDS011;50528;48.514;14.394;2023-03-15T02:27:31;4.60;;;1.50;;
64210;SDS011;50528;48.514;14.394;2023-03-15T02:28:09;3.20;;;1.70;;
64210;SDS011;50528;48.514;14.394;2023-03-15T02:28:47;4.30;;;1.70;;
64210;SDS011;50528;48.514;14.394;2023-03-15T02:29:24;4.90;;;1.70;;
64210;SDS011;50528;48.514;14.394;2023-03-15T02:30:00;4.60;;;2.00;;
64210;SDS011;50528;48.514;14.394;2023-03-15T02:30:37;6.40;;;2.00;;
64210;SDS011;50528;48.514;14.394;2023-03-15T02:31:12;5.90;;;2.30;;
64210;SDS011;50528;48.514;14.394;2023-03-15T02:31:46;5.60;;;1.70;;
64210;SDS011;50528;48.514;14.394;2023-03-15T02:32:20;4.20;;;1.70;;
64210;SDS011;50528;48.514;14.394;2023-03-15T02:32:55;4.10;;;1.80;;
64210;SDS011;50528;48.514;14.394;2023-03-15T02:34:17;3.30;;;1.90;;
64210;SDS011;50528;48.514;14.394;2023-03-15T02:34:50;4.80;;;2.00;;
64210;SDS011;50528;48.514;14.394;2023-03-15T02:35:28;3.20;;;2.00;;
64210;SDS011;50528;48.514;14.394;2023-03-15T02:36:23;4.10;;;1.90;;
64210;SDS011;50528;48.514;14.394;2023-03-15T02:36:58;3.00;;;1.70;;
64210;SDS011;50528;48.514;14.394;2023-03-15T02:37:32;3.10;;;1.80;;
64210;SDS011;50528;48.514;14.394;2023-03-15T02:38:05;4.50;;;2.20;;
64210;SDS011;50528;48.514;14.394;2023-03-15T02:38:39;4.00;;;1.90;;
64210;SDS011;50528;48.514;14.394;2023-03-15T02:39:22;4.10;;;1.90;;
64210;SDS011;50528;48.514;14.394;2023-03-15T02:39:56;4.20;;;1.80;;
64210;SDS011;50528;48.514;14.394;2023-03-15T02:40:30;4.10;;;2.10;;
64210;SDS011;50528;48.514;14.394;2023-03-15T02:41:05;3.90;;;1.80;;
64210;SDS011;50528;48.514;14.394;2023-03-15T02:41:40;4.20;;;1.90;;
64210;SDS011;50528;48.514;14.394;2023-03-15T02:42:16;3.60;;;1.90;;
64210;SDS011;50528;48.514;14.394;2023-03-15T02:42:52;5.50;;;2.30;;
64210;SDS011;50528;48.514;14.394;2023-03-15T02:43:29;3.30;;;1.70;;
64210;SDS011;50528;48.514;14.394;2023-03-15T02:44:10;5.70;;;2.10;;
64210;SDS011;50528;48.514;14.394;2023-03-15T02:44:48;4.30;;;2.00;;
64210;SDS011;50528;48.514;14.394;2023-03-15T02:45:22;4.90;;;1.90;;
64210;SDS011;50528;48.514;14.394;2023-03-15T02:45:58;3.10;;;1.70;;
64210;SDS011;50528;48.514;14.394;2023-03-15T02:46:33;6.10;;;2.20;;
64210;SDS011;50528;48.514;14.394;2023-03-15T02:47:14;3.80;;;1.90;;
64210;SDS011;50528;48.514;14.394;2023-03-15T02:47:51;4.90;;;2.10;;
64210;SDS011;50528;48.514;14.394;2023-03-15T02:48:25;5.50;;;2.10;;
64210;SDS011;50528;48.514;14.394;2023-03-15T02:48:59;6.20;;;2.10;;
64210;SDS011;50528;48.514;14.394;2023-03-15T02:51:17;5.70;;;2.10;;
64210;SDS011;50528;48.514;14.394;2023-03-15T02:51:53;5.20;;;2.10;;
64210;SDS011;50528;48.514;14.394;2023-03-15T02:52:26;8.90;;;2.40;;
64210;SDS011;50528;48.514;14.394;2023-03-15T02:53:00;5.20;;;2.00;;
64210;SDS011;50528;48.514;14.394;2023-03-15T02:53:35;4.70;;;2.10;;
64210;SDS011;50528;48.514;14.394;2023-03-15T02:54:08;6.40;;;2.20;;
64210;SDS011;50528;48.514;14.394;2023-03-15T02:54:42;6.50;;;2.30;;
64210;SDS011;50528;48.514;14.394;2023-03-15T02:55:17;5.90;;;2.10;;
64210;SDS011;50528;48.514;14.394;2023-03-15T02:55:51;6.10;;;2.20;;
64210;SDS011;50528;48.514;14.394;2023-03-15T02:56:25;5.70;;;2.20;;
64210;SDS011;50528;48.514;14.394;2023-03-15T02:56:59;3.40;;;2.30;;
64210;SDS011;50528;48.514;14.394;2023-03-15T02:57:35;3.90;;;2.30;;
64210;SDS011;50528;48.514;14.394;2023-03-15T02:58:10;5.20;;;2.20;;
64210;SDS011;50528;48.514;14.394;2023-03-15T02:58:44;6.30;;;2.20;;
64210;SDS011;50528;48.514;14.394;2023-03-15T02:59:18;5.00;;;2.50;;
64210;SDS011;50528;48.514;14.394;2023-03-15T02:59:52;6.40;;;2.30;;
64210;SDS011;50528;48.514;14.394;2023-03-15T03:00:27;4.20;;;2.30;;
64210;SDS011;50528;48.514;14.394;2023-03-15T03:01:02;4.50;;;2.10;;
64210;SDS011;50528;48.514;14.394;2023-03-15T03:01:36;5.00;;;2.40;;
64210;SDS011;50528;48.514;14.394;2023-03-15T03:02:12;6.30;;;2.30;;
64210;SDS011;50528;48.514;14.394;2023-03-15T03:02:47;5.80;;;2.20;;
64210;SDS011;50528;48.514;14.394;2023-03-15T03:03:21;4.20;;;2.20;;
64210;SDS011;50528;48.514;14.394;2023-03-15T03:03:55;5.80;;;2.40;;
64210;SDS011;50528;48.514;14.394;2023-03-15T03:04:29;4.80;;;2.40;;
64210;SDS011;50528;48.514;14.394;2023-03-15T03:05:03;7.00;;;2.70;;
64210;SDS011;50528;48.514;14.394;2023-03-15T03:05:37;4.10;;;2.40;;
64210;SDS011;50528;48.514;14.394;2023-03-15T03:06:11;6.30;;;2.50;;
64210;SDS011;50528;48.514;14.394;2023-03-15T03:06:46;5.50;;;2.30;;
64210;SDS011;50528;48.514;14.394;2023-03-15T03:07:22;6.00;;;2.20;;
64210;SDS011;50528;48.514;14.394;2023-03-15T03:07:59;4.50;;;2.30;;
64210;SDS011;50528;48.514;14.394;2023-03-15T03:08:35;3.80;;;2.20;;
64210;SDS011;50528;48.514;14.394;2023-03-15T03:09:09;5.20;;;2.30;;
64210;SDS011;50528;48.514;14.394;2023-03-15T03:09:44;4.20;;;2.30;;
64210;SDS011;50528;48.514;14.394;2023-03-15T03:10:18;5.60;;;2.40;;
64210;SDS011;50528;48.514;14.394;2023-03-15T03:10:58;5.60;;;2.30;;
64210;SDS011;50528;48.514;14.394;2023-03-15T03:11:32;5.80;;;2.40;;
64210;SDS011;50528;48.514;14.394;2023-03-15T03:12:06;4.60;;;2.50;;
64210;SDS011;50528;48.514;14.394;2023-03-15T03:12:40;4.80;;;2.30;;
64210;SDS011;50528;48.514;14.394;2023-03-15T03:13:14;5.40;;;2.50;;
64210;SDS011;50528;48.514;14.394;2023-03-15T03:13:47;4.50;;;2.40;;
64210;SDS011;50528;48.514;14.394;2023-03-15T03:14:21;6.20;;;2.60;;
64210;SDS011;50528;48.514;14.394;2023-03-15T03:14:56;4.90;;;2.50;;
64210;SDS011;50528;48.514;14.394;2023-03-15T03:15:29;5.00;;;2.70;;
64210;SDS011;50528;48.514;14.394;2023-03-15T03:16:03;5.10;;;2.50;;
64210;SDS011;50528;48.514;14.394;2023-03-15T03:16:37;5.40;;;2.50;;
64210;SDS011;50528;48.514;14.394;2023-03-15T03:17:11;4.90;;;2.70;;
64210;SDS011;50528;48.514;14.394;2023-03-15T03:17:45;6.50;;;2.50;;
64210;SDS011;50528;48.514;14.394;2023-03-15T03:18:19;4.60;;;2.60;;
64210;SDS011;50528;48.514;14.394;2023-03-15T03:18:53;6.60;;;2.50;;
64210;SDS011;50528;48.514;14.394;2023-03-15T03:19:26;6.00;;;2.50;;
64210;SDS011;50528;48.514;14.394;2023-03-15T03:20:00;5.50;;;2.50;;
64210;SDS011;50528;48.514;14.394;2023-03-15T03:20:37;4.40;;;2.50;;
64210;SDS011;50528;48.514;14.394;2023-03-15T03:21:11;5.70;;;2.60;;
64210;SDS011;50528;48.514;14.394;2023-03-15T03:21:48;5.80;;;2.60;;
64210;SDS011;50528;48.514;14.394;2023-03-15T03:22:22;5.80;;;2.70;;
64210;SDS011;50528;48.514;14.394;2023-03-15T03:22:56;5.20;;;2.70;;
64210;SDS011;50528;48.514;14.394;2023-03-15T03:23:30;5.90;;;2.40;;
64210;SDS011;50528;48.514;14.394;2023-03-15T03:24:06;4.60;;;2.40;;
64210;SDS011;50528;48.514;14.394;2023-03-15T03:24:39;5.20;;;2.50;;
64210;SDS011;50528;48.514;14.394;2023-03-15T03:25:19;4.40;;;2.50;;
64210;SDS011;50528;48.514;14.394;2023-03-15T03:25:53;5.60;;;2.40;;
64210;SDS011;50528;48.514;14.394;2023-03-15T03:26:28;4.30;;;2.50;;
64210;SDS011;50528;48.514;14.394;2023-03-15T03:27:04;6.00;;;2.70;;
64210;SDS011;50528;48.514;14.394;2023-03-15T03:27:40;5.20;;;2.90;;
64210;SDS011;50528;48.514;14.394;2023-03-15T03:28:15;4.80;;;2.40;;
64210;SDS011;50528;48.514;14.394;2023-03-15T03:28:49;6.60;;;2.60;;
64210;SDS011;50528;48.514;14.394;2023-03-15T03:29:24;6.60;;;2.20;;
64210;SDS011;50528;48.514;14.394;2023-03-15T03:29:59;6.10;;;2.40;;
64210;SDS011;50528;48.514;14.394;2023-03-15T03:30:34;6.20;;;2.40;;
64210;SDS011;50528;48.514;14.394;2023-03-15T03:31:13;7.60;;;2.60;;
64210;SDS011;50528;48.514;14.394;2023-03-15T03:31:58;6.40;;;2.20;;
64210;SDS011;50528;48.514;14.394;2023-03-15T03:32:32;5.20;;;2.40;;
64210;SDS011;50528;48.514;14.394;2023-03-15T03:33:06;5.20;;;2.70;;
64210;SDS011;50528;48.514;14.394;2023-03-15T03:33:40;4.70;;;2.50;;
64210;SDS011;50528;48.514;14.394;2023-03-15T03:34:13;5.30;;;2.70;;
64210;SDS011;50528;48.514;14.394;2023-03-15T03:34:47;4.70;;;2.30;;
64210;SDS011;50528;48.514;14.394;2023-03-15T03:35:24;3.80;;;2.40;;
64210;SDS011;50528;48.514;14.394;2023-03-15T03:36:00;4.60;;;2.30;;
64210;SDS011;50528;48.514;14.394;2023-03-15T03:36:37;4.00;;;2.60;;
64210;SDS011;50528;48.514;14.394;2023-03-15T03:37:10;5.00;;;2.30;;
64210;SDS011;50528;48.514;14.394;2023-03-15T03:37:54;5.20;;;2.50;;
64210;SDS011;50528;48.514;14.394;2023-03-15T03:38:33;5.20;;;2.70;;
64210;SDS011;50528;48.514;14.394;2023-03-15T03:39:06;4.30;;;2.30;;
64210;SDS011;50528;48.514;14.394;2023-03-15T03:39:43;5.20;;;2.70;;
64210;SDS011;50528;48.514;14.394;2023-03-15T03:40:16;5.40;;;2.40;;
64210;SDS011;50528;48.514;14.394;2023-03-15T03:40:50;4.90;;;2.30;;
64210;SDS011;50528;48.514;14.394;2023-03-15T03:41:24;4.80;;;2.30;;
64210;SDS011;50528;48.514;14.394;2023-03-15T03:41:58;6.40;;;2.40;;
64210;SDS011;50528;48.514;14.394;2023-03-15T03:42:32;5.20;;;2.60;;
64210;SDS011;50528;48.514;14.394;2023-03-15T03:43:06;4.70;;;2.50;;
64210;SDS011;50528;48.514;14.394;2023-03-15T03:43:41;4.10;;;2.30;;
64210;SDS011;50528;48.514;14.394;2023-03-15T03:44:15;4.10;;;2.40;;
64210;SDS011;50528;48.514;14.394;2023-03-15T03:44:49;4.20;;;2.40;;